sensor_id;sensor_type;location;lat;lon;timestamp;temperature;humidity
37678;DHT22;23517;50.390;8.616;2023-04-24T00:01:08;11.50;56.70
37678;DHT22;23517;50.390;8.616;2023-04-24T00:03:35;11.60;56.00
37678;DHT22;23517;50.390;8.616;2023-04-24T00:06:02;11.60;55.20
37678;DHT22;23517;50.390;8.616;2023-04-24T00:08:29;11.50;56.10
37678;DHT22;23517;50.390;8.616;2023-04-24T00:10:56;11.40;56.30
37678;DHT22;23517;50.390;8.616;2023-04-24T00:13:23;11.20;56.90
37678;DHT22;23517;50.390;8.616;2023-04-24T00:15:50;11.10;57.60
37678;DHT22;23517;50.390;8.616;2023-04-24T00:18:17;11.10;57.50
37678;DHT22;23517;50.390;8.616;2023-04-24T00:20:44;11.00;57.70
37678;DHT22;23517;50.390;8.616;2023-04-24T00:23:10;10.90;57.50
37678;DHT22;23517;50.390;8.616;2023-04-24T00:25:38;10.80;58.00
37678;DHT22;23517;50.390;8.616;2023-04-24T00:28:05;10.80;58.20
37678;DHT22;23517;50.390;8.616;2023-04-24T00:30:32;10.90;58.10
37678;DHT22;23517;50.390;8.616;2023-04-24T00:32:58;10.80;58.20
37678;DHT22;23517;50.390;8.616;2023-04-24T00:35:25;10.70;58.40
37678;DHT22;23517;50.390;8.616;2023-04-24T00:37:52;10.70;58.90
37678;DHT22;23517;50.390;8.616;2023-04-24T00:40:19;10.80;58.50
37678;DHT22;23517;50.390;8.616;2023-04-24T00:42:46;10.80;58.50
37678;DHT22;23517;50.390;8.616;2023-04-24T00:45:13;11.00;57.60
37678;DHT22;23517;50.390;8.616;2023-04-24T00:47:41;11.10;57.30
37678;DHT22;23517;50.390;8.616;2023-04-24T00:50:08;11.30;56.80
37678;DHT22;23517;50.390;8.616;2023-04-24T00:52:35;11.40;56.70
37678;DHT22;23517;50.390;8.616;2023-04-24T00:55:02;11.50;56.20
37678;DHT22;23517;50.390;8.616;2023-04-24T00:57:30;11.60;55.80
37678;DHT22;23517;50.390;8.616;2023-04-24T00:59:56;11.60;56.00
37678;DHT22;23517;50.390;8.616;2023-04-24T01:02:23;11.60;56.20
37678;DHT22;23517;50.390;8.616;2023-04-24T01:04:51;11.60;56.50
37678;DHT22;23517;50.390;8.616;2023-04-24T01:07:19;11.60;56.50
37678;DHT22;23517;50.390;8.616;2023-04-24T01:09:48;11.60;56.60
37678;DHT22;23517;50.390;8.616;2023-04-24T01:12:17;11.60;56.50
37678;DHT22;23517;50.390;8.616;2023-04-24T01:14:44;11.60;56.90
37678;DHT22;23517;50.390;8.616;2023-04-24T01:17:11;11.60;56.40
37678;DHT22;23517;50.390;8.616;2023-04-24T01:19:38;11.60;57.00
37678;DHT22;23517;50.390;8.616;2023-04-24T01:22:14;11.60;56.80
37678;DHT22;23517;50.390;8.616;2023-04-24T01:24:41;11.60;56.70
37678;DHT22;23517;50.390;8.616;2023-04-24T01:27:10;11.60;56.80
37678;DHT22;23517;50.390;8.616;2023-04-24T01:29:37;11.50;56.90
37678;DHT22;23517;50.390;8.616;2023-04-24T01:32:04;11.50;56.80
37678;DHT22;23517;50.390;8.616;2023-04-24T01:34:32;11.50;57.30
37678;DHT22;23517;50.390;8.616;2023-04-24T01:36:58;11.50;56.80
37678;DHT22;23517;50.390;8.616;2023-04-24T01:39:26;11.40;56.90
37678;DHT22;23517;50.390;8.616;2023-04-24T01:41:55;11.40;57.60
37678;DHT22;23517;50.390;8.616;2023-04-24T01:44:22;11.40;57.60
37678;DHT22;23517;50.390;8.616;2023-04-24T01:46:49;11.40;58.10
37678;DHT22;23517;50.390;8.616;2023-04-24T01:49:17;11.40;57.20
37678;DHT22;23517;50.390;8.616;2023-04-24T01:51:44;11.40;57.10
37678;DHT22;23517;50.390;8.616;2023-04-24T01:54:11;11.40;56.90
37678;DHT22;23517;50.390;8.616;2023-04-24T01:56:41;11.40;57.20
37678;DHT22;23517;50.390;8.616;2023-04-24T01:59:11;11.40;57.20
37678;DHT22;23517;50.390;8.616;2023-04-24T02:01:38;11.30;57.70
37678;DHT22;23517;50.390;8.616;2023-04-24T02:04:06;11.40;58.50
37678;DHT22;23517;50.390;8.616;2023-04-24T02:06:35;11.40;59.20
37678;DHT22;23517;50.390;8.616;2023-04-24T02:09:02;11.40;59.60
37678;DHT22;23517;50.390;8.616;2023-04-24T02:11:29;11.30;60.80
37678;DHT22;23517;50.390;8.616;2023-04-24T02:13:57;11.30;61.30
37678;DHT22;23517;50.390;8.616;2023-04-24T02:16:24;11.30;61.70
37678;DHT22;23517;50.390;8.616;2023-04-24T02:18:51;11.30;62.00
37678;DHT22;23517;50.390;8.616;2023-04-24T02:21:17;11.20;62.40
37678;DHT22;23517;50.390;8.616;2023-04-24T02:23:44;11.20;63.90
37678;DHT22;23517;50.390;8.616;2023-04-24T02:26:11;11.20;64.30
37678;DHT22;23517;50.390;8.616;2023-04-24T02:28:37;11.10;64.00
37678;DHT22;23517;50.390;8.616;2023-04-24T02:31:04;11.10;66.00
37678;DHT22;23517;50.390;8.616;2023-04-24T02:33:32;11.00;67.00
37678;DHT22;23517;50.390;8.616;2023-04-24T02:35:59;10.90;69.10
37678;DHT22;23517;50.390;8.616;2023-04-24T02:38:26;10.90;69.00
37678;DHT22;23517;50.390;8.616;2023-04-24T02:40:52;10.90;70.30
37678;DHT22;23517;50.390;8.616;2023-04-24T02:43:19;10.90;69.80
37678;DHT22;23517;50.390;8.616;2023-04-24T02:45:46;10.90;69.00
37678;DHT22;23517;50.390;8.616;2023-04-24T02:48:13;10.90;69.30
37678;DHT22;23517;50.390;8.616;2023-04-24T02:50:39;10.90;69.20
37678;DHT22;23517;50.390;8.616;2023-04-24T02:53:06;10.90;69.30
37678;DHT22;23517;50.390;8.616;2023-04-24T02:55:33;10.70;69.20
37678;DHT22;23517;50.390;8.616;2023-04-24T02:58:00;10.70;70.80
37678;DHT22;23517;50.390;8.616;2023-04-24T03:00:26;10.60;71.70
37678;DHT22;23517;50.390;8.616;2023-04-24T03:02:53;10.50;72.80
37678;DHT22;23517;50.390;8.616;2023-04-24T03:05:20;10.50;73.10
37678;DHT22;23517;50.390;8.616;2023-04-24T03:07:46;10.50;73.20
37678;DHT22;23517;50.390;8.616;2023-04-24T03:10:19;10.50;73.40
37678;DHT22;23517;50.390;8.616;2023-04-24T03:12:45;10.40;71.20
37678;DHT22;23517;50.390;8.616;2023-04-24T03:15:12;10.40;69.80
37678;DHT22;23517;50.390;8.616;2023-04-24T03:17:39;10.40;69.20
37678;DHT22;23517;50.390;8.616;2023-04-24T03:20:06;10.40;67.90
37678;DHT22;23517;50.390;8.616;2023-04-24T03:22:34;10.40;66.50
37678;DHT22;23517;50.390;8.616;2023-04-24T03:25:02;10.40;64.10
37678;DHT22;23517;50.390;8.616;2023-04-24T03:27:28;10.50;62.50
37678;DHT22;23517;50.390;8.616;2023-04-24T03:29:55;10.50;60.60
37678;DHT22;23517;50.390;8.616;2023-04-24T03:32:22;10.50;59.70
37678;DHT22;23517;50.390;8.616;2023-04-24T03:34:49;10.50;60.00
37678;DHT22;23517;50.390;8.616;2023-04-24T03:37:16;10.50;59.30
37678;DHT22;23517;50.390;8.616;2023-04-24T03:39:43;10.50;59.00
37678;DHT22;23517;50.390;8.616;2023-04-24T03:42:10;10.40;58.40
37678;DHT22;23517;50.390;8.616;2023-04-24T03:44:37;10.30;58.90
37678;DHT22;23517;50.390;8.616;2023-04-24T03:47:04;10.30;59.70
37678;DHT22;23517;50.390;8.616;2023-04-24T03:49:31;10.30;60.00
37678;DHT22;23517;50.390;8.616;2023-04-24T03:51:57;10.30;59.40
37678;DHT22;23517;50.390;8.616;2023-04-24T03:54:24;10.30;59.40
37678;DHT22;23517;50.390;8.616;2023-04-24T03:56:51;10.30;59.20
37678;DHT22;23517;50.390;8.616;2023-04-24T03:59:17;10.30;59.20
37678;DHT22;23517;50.390;8.616;2023-04-24T04:01:44;10.20;58.40
37678;DHT22;23517;50.390;8.616;2023-04-24T04:04:12;10.20;58.00
37678;DHT22;23517;50.390;8.616;2023-04-24T04:06:39;10.10;58.70
37678;DHT22;23517;50.390;8.616;2023-04-24T04:09:05;10.10;58.00
37678;DHT22;23517;50.390;8.616;2023-04-24T04:11:33;10.10;54.80
37678;DHT22;23517;50.390;8.616;2023-04-24T04:14:00;10.00;55.60
37678;DHT22;23517;50.390;8.616;2023-04-24T04:16:27;10.00;56.20
37678;DHT22;23517;50.390;8.616;2023-04-24T04:18:53;10.00;55.90
37678;DHT22;23517;50.390;8.616;2023-04-24T04:21:20;10.00;55.30
37678;DHT22;23517;50.390;8.616;2023-04-24T04:23:47;9.90;54.70
37678;DHT22;23517;50.390;8.616;2023-04-24T04:26:14;9.80;53.50
37678;DHT22;23517;50.390;8.616;2023-04-24T04:28:41;9.70;53.40
37678;DHT22;23517;50.390;8.616;2023-04-24T04:31:07;9.80;52.80
37678;DHT22;23517;50.390;8.616;2023-04-24T04:33:34;9.70;51.90
37678;DHT22;23517;50.390;8.616;2023-04-24T04:36:02;9.70;51.00
37678;DHT22;23517;50.390;8.616;2023-04-24T04:38:30;9.70;50.50
37678;DHT22;23517;50.390;8.616;2023-04-24T04:40:56;9.60;50.60
37678;DHT22;23517;50.390;8.616;2023-04-24T04:43:24;9.60;50.10
37678;DHT22;23517;50.390;8.616;2023-04-24T04:45:51;9.50;50.40
37678;DHT22;23517;50.390;8.616;2023-04-24T04:48:18;9.50;50.00
37678;DHT22;23517;50.390;8.616;2023-04-24T04:50:45;9.40;49.70
37678;DHT22;23517;50.390;8.616;2023-04-24T04:53:12;9.40;49.30
37678;DHT22;23517;50.390;8.616;2023-04-24T04:55:39;9.30;50.20
37678;DHT22;23517;50.390;8.616;2023-04-24T04:58:05;9.20;50.60
37678;DHT22;23517;50.390;8.616;2023-04-24T05:00:32;9.30;50.40
37678;DHT22;23517;50.390;8.616;2023-04-24T05:03:02;9.20;50.20
37678;DHT22;23517;50.390;8.616;2023-04-24T05:05:45;9.20;50.70
37678;DHT22;23517;50.390;8.616;2023-04-24T05:08:11;9.20;50.90
37678;DHT22;23517;50.390;8.616;2023-04-24T05:10:53;9.20;51.00
37678;DHT22;23517;50.390;8.616;2023-04-24T05:13:20;9.20;51.30
37678;DHT22;23517;50.390;8.616;2023-04-24T05:15:58;9.20;52.00
37678;DHT22;23517;50.390;8.616;2023-04-24T05:18:26;9.30;51.10
37678;DHT22;23517;50.390;8.616;2023-04-24T05:20:53;9.30;51.50
37678;DHT22;23517;50.390;8.616;2023-04-24T05:23:20;9.30;51.80
37678;DHT22;23517;50.390;8.616;2023-04-24T05:25:47;9.40;51.30
37678;DHT22;23517;50.390;8.616;2023-04-24T05:28:14;9.50;50.10
37678;DHT22;23517;50.390;8.616;2023-04-24T05:30:41;9.60;50.40
37678;DHT22;23517;50.390;8.616;2023-04-24T05:33:08;9.60;49.60
37678;DHT22;23517;50.390;8.616;2023-04-24T05:35:36;9.70;48.70
37678;DHT22;23517;50.390;8.616;2023-04-24T05:38:05;9.90;48.20
37678;DHT22;23517;50.390;8.616;2023-04-24T05:40:31;10.10;47.10
37678;DHT22;23517;50.390;8.616;2023-04-24T05:42:58;10.20;45.80
37678;DHT22;23517;50.390;8.616;2023-04-24T05:45:24;10.30;45.60
37678;DHT22;23517;50.390;8.616;2023-04-24T05:47:51;10.50;44.40
37678;DHT22;23517;50.390;8.616;2023-04-24T05:50:21;10.80;44.00
37678;DHT22;23517;50.390;8.616;2023-04-24T05:52:48;11.10;41.90
37678;DHT22;23517;50.390;8.616;2023-04-24T05:55:14;11.40;40.30
37678;DHT22;23517;50.390;8.616;2023-04-24T05:57:44;11.80;39.10
37678;DHT22;23517;50.390;8.616;2023-04-24T06:00:12;12.10;37.60
37678;DHT22;23517;50.390;8.616;2023-04-24T06:02:39;11.90;37.30
37678;DHT22;23517;50.390;8.616;2023-04-24T06:05:06;12.00;37.10
37678;DHT22;23517;50.390;8.616;2023-04-24T06:07:34;12.30;37.10
37678;DHT22;23517;50.390;8.616;2023-04-24T06:10:01;12.80;35.10
37678;DHT22;23517;50.390;8.616;2023-04-24T06:12:28;13.00;32.80
37678;DHT22;23517;50.390;8.616;2023-04-24T06:14:55;13.80;32.00
37678;DHT22;23517;50.390;8.616;2023-04-24T06:17:22;14.10;29.80
37678;DHT22;23517;50.390;8.616;2023-04-24T06:19:48;14.50;28.60
37678;DHT22;23517;50.390;8.616;2023-04-24T06:22:15;14.60;27.50
37678;DHT22;23517;50.390;8.616;2023-04-24T06:24:42;14.90;27.30
37678;DHT22;23517;50.390;8.616;2023-04-24T06:27:08;15.70;25.80
37678;DHT22;23517;50.390;8.616;2023-04-24T06:29:36;16.80;23.90
37678;DHT22;23517;50.390;8.616;2023-04-24T06:32:03;17.10;23.30
37678;DHT22;23517;50.390;8.616;2023-04-24T06:34:29;16.90;22.00
37678;DHT22;23517;50.390;8.616;2023-04-24T06:36:57;17.00;20.80
37678;DHT22;23517;50.390;8.616;2023-04-24T06:39:24;17.50;20.50
37678;DHT22;23517;50.390;8.616;2023-04-24T06:41:50;17.90;20.50
37678;DHT22;23517;50.390;8.616;2023-04-24T06:44:17;18.70;18.70
37678;DHT22;23517;50.390;8.616;2023-04-24T06:46:44;18.30;18.90
37678;DHT22;23517;50.390;8.616;2023-04-24T06:49:11;18.00;19.20
37678;DHT22;23517;50.390;8.616;2023-04-24T06:51:37;18.60;19.70
37678;DHT22;23517;50.390;8.616;2023-04-24T06:54:04;19.20;18.60
37678;DHT22;23517;50.390;8.616;2023-04-24T06:56:30;19.60;17.20
37678;DHT22;23517;50.390;8.616;2023-04-24T06:58:57;19.20;18.00
37678;DHT22;23517;50.390;8.616;2023-04-24T07:01:24;19.40;17.90
37678;DHT22;23517;50.390;8.616;2023-04-24T07:03:51;19.30;17.30
37678;DHT22;23517;50.390;8.616;2023-04-24T07:06:18;19.20;18.00
37678;DHT22;23517;50.390;8.616;2023-04-24T07:08:47;19.90;17.40
37678;DHT22;23517;50.390;8.616;2023-04-24T07:11:15;20.70;16.20
37678;DHT22;23517;50.390;8.616;2023-04-24T07:13:42;21.50;14.70
37678;DHT22;23517;50.390;8.616;2023-04-24T07:16:09;22.40;12.10
37678;DHT22;23517;50.390;8.616;2023-04-24T07:18:37;22.60;12.60
37678;DHT22;23517;50.390;8.616;2023-04-24T07:21:03;22.80;12.10
37678;DHT22;23517;50.390;8.616;2023-04-24T07:23:30;23.60;12.00
37678;DHT22;23517;50.390;8.616;2023-04-24T07:25:57;23.40;11.20
37678;DHT22;23517;50.390;8.616;2023-04-24T07:28:24;23.00;11.60
37678;DHT22;23517;50.390;8.616;2023-04-24T07:30:51;22.80;11.80
37678;DHT22;23517;50.390;8.616;2023-04-24T07:33:20;23.70;11.20
37678;DHT22;23517;50.390;8.616;2023-04-24T07:35:47;24.90;9.80
37678;DHT22;23517;50.390;8.616;2023-04-24T07:38:13;25.80;8.70
37678;DHT22;23517;50.390;8.616;2023-04-24T07:40:40;23.10;11.00
37678;DHT22;23517;50.390;8.616;2023-04-24T07:43:07;21.50;12.20
37678;DHT22;23517;50.390;8.616;2023-04-24T07:45:34;21.50;13.60
37678;DHT22;23517;50.390;8.616;2023-04-24T07:48:03;22.40;11.90
37678;DHT22;23517;50.390;8.616;2023-04-24T07:50:30;23.20;11.30
37678;DHT22;23517;50.390;8.616;2023-04-24T07:52:57;23.50;10.80
37678;DHT22;23517;50.390;8.616;2023-04-24T07:55:24;22.60;11.00
37678;DHT22;23517;50.390;8.616;2023-04-24T07:57:53;23.00;10.50
37678;DHT22;23517;50.390;8.616;2023-04-24T08:00:20;22.40;10.40
37678;DHT22;23517;50.390;8.616;2023-04-24T08:02:47;22.20;11.40
37678;DHT22;23517;50.390;8.616;2023-04-24T08:05:14;23.20;10.80
37678;DHT22;23517;50.390;8.616;2023-04-24T08:07:41;23.00;10.10
37678;DHT22;23517;50.390;8.616;2023-04-24T08:10:12;22.00;11.20
37678;DHT22;23517;50.390;8.616;2023-04-24T08:12:39;21.10;12.30
37678;DHT22;23517;50.390;8.616;2023-04-24T08:15:07;19.50;14.30
37678;DHT22;23517;50.390;8.616;2023-04-24T08:17:34;19.30;15.10
37678;DHT22;23517;50.390;8.616;2023-04-24T08:20:05;19.40;15.00
37678;DHT22;23517;50.390;8.616;2023-04-24T08:22:36;19.00;15.40
37678;DHT22;23517;50.390;8.616;2023-04-24T08:25:03;18.40;15.90
37678;DHT22;23517;50.390;8.616;2023-04-24T08:27:30;17.90;16.50
37678;DHT22;23517;50.390;8.616;2023-04-24T08:29:57;17.20;17.60
37678;DHT22;23517;50.390;8.616;2023-04-24T08:32:23;16.50;19.00
37678;DHT22;23517;50.390;8.616;2023-04-24T08:34:50;16.10;20.40
37678;DHT22;23517;50.390;8.616;2023-04-24T08:37:19;15.40;22.00
37678;DHT22;23517;50.390;8.616;2023-04-24T08:39:45;14.90;22.20
37678;DHT22;23517;50.390;8.616;2023-04-24T08:42:13;14.50;23.50
37678;DHT22;23517;50.390;8.616;2023-04-24T08:44:40;14.10;24.20
37678;DHT22;23517;50.390;8.616;2023-04-24T08:47:08;13.70;25.50
37678;DHT22;23517;50.390;8.616;2023-04-24T08:49:36;13.50;26.40
37678;DHT22;23517;50.390;8.616;2023-04-24T08:52:05;13.50;26.80
37678;DHT22;23517;50.390;8.616;2023-04-24T08:54:34;13.30;27.00
37678;DHT22;23517;50.390;8.616;2023-04-24T08:57:02;13.10;27.70
37678;DHT22;23517;50.390;8.616;2023-04-24T08:59:31;13.10;28.10
37678;DHT22;23517;50.390;8.616;2023-04-24T09:01:58;13.10;27.80
37678;DHT22;23517;50.390;8.616;2023-04-24T09:04:25;13.30;27.80
37678;DHT22;23517;50.390;8.616;2023-04-24T09:06:58;13.30;27.30
37678;DHT22;23517;50.390;8.616;2023-04-24T09:09:25;13.30;28.00
37678;DHT22;23517;50.390;8.616;2023-04-24T09:11:52;13.30;27.10
37678;DHT22;23517;50.390;8.616;2023-04-24T09:14:21;13.30;27.60
37678;DHT22;23517;50.390;8.616;2023-04-24T09:16:50;13.40;27.30
37678;DHT22;23517;50.390;8.616;2023-04-24T09:19:17;13.40;27.60
37678;DHT22;23517;50.390;8.616;2023-04-24T09:21:46;13.30;28.00
37678;DHT22;23517;50.390;8.616;2023-04-24T09:24:18;13.60;27.50
37678;DHT22;23517;50.390;8.616;2023-04-24T09:26:55;14.10;27.00
37678;DHT22;23517;50.390;8.616;2023-04-24T09:29:28;14.50;25.90
37678;DHT22;23517;50.390;8.616;2023-04-24T09:31:55;14.60;25.50
37678;DHT22;23517;50.390;8.616;2023-04-24T09:34:23;14.20;26.40
37678;DHT22;23517;50.390;8.616;2023-04-24T09:36:54;13.70;26.80
37678;DHT22;23517;50.390;8.616;2023-04-24T09:39:21;13.70;27.70
37678;DHT22;23517;50.390;8.616;2023-04-24T09:44:22;13.30;28.60
37678;DHT22;23517;50.390;8.616;2023-04-24T09:46:53;13.10;29.00
37678;DHT22;23517;50.390;8.616;2023-04-24T09:49:28;13.00;29.70
37678;DHT22;23517;50.390;8.616;2023-04-24T09:52:10;12.90;30.30
37678;DHT22;23517;50.390;8.616;2023-04-24T09:54:38;13.00;30.00
37678;DHT22;23517;50.390;8.616;2023-04-24T09:57:09;13.10;29.80
37678;DHT22;23517;50.390;8.616;2023-04-24T09:59:42;13.30;28.90
37678;DHT22;23517;50.390;8.616;2023-04-24T10:02:21;13.40;29.00
37678;DHT22;23517;50.390;8.616;2023-04-24T10:04:55;13.50;28.80
37678;DHT22;23517;50.390;8.616;2023-04-24T10:07:27;13.70;28.60
37678;DHT22;23517;50.390;8.616;2023-04-24T10:09:54;13.80;28.50
37678;DHT22;23517;50.390;8.616;2023-04-24T10:12:21;14.10;28.50
37678;DHT22;23517;50.390;8.616;2023-04-24T10:14:49;14.20;28.60
37678;DHT22;23517;50.390;8.616;2023-04-24T10:17:17;14.60;28.40
37678;DHT22;23517;50.390;8.616;2023-04-24T10:19:45;14.80;27.80
37678;DHT22;23517;50.390;8.616;2023-04-24T10:22:12;14.90;28.10
37678;DHT22;23517;50.390;8.616;2023-04-24T10:24:39;14.60;27.20
37678;DHT22;23517;50.390;8.616;2023-04-24T10:27:08;14.40;28.00
37678;DHT22;23517;50.390;8.616;2023-04-24T10:29:36;14.10;27.90
37678;DHT22;23517;50.390;8.616;2023-04-24T10:32:06;13.90;28.10
37678;DHT22;23517;50.390;8.616;2023-04-24T10:34:33;13.70;28.60
37678;DHT22;23517;50.390;8.616;2023-04-24T10:37:00;13.60;30.40
37678;DHT22;23517;50.390;8.616;2023-04-24T10:39:28;13.40;31.20
37678;DHT22;23517;50.390;8.616;2023-04-24T10:41:57;13.40;33.20
37678;DHT22;23517;50.390;8.616;2023-04-24T10:44:24;13.50;35.00
37678;DHT22;23517;50.390;8.616;2023-04-24T10:46:55;13.40;35.40
37678;DHT22;23517;50.390;8.616;2023-04-24T10:49:30;13.40;36.20
37678;DHT22;23517;50.390;8.616;2023-04-24T10:52:02;13.60;37.00
37678;DHT22;23517;50.390;8.616;2023-04-24T10:59:48;13.30;39.30
37678;DHT22;23517;50.390;8.616;2023-04-24T11:02:17;13.20;40.20
37678;DHT22;23517;50.390;8.616;2023-04-24T11:04:44;13.10;41.30
37678;DHT22;23517;50.390;8.616;2023-04-24T11:07:12;12.90;41.00
37678;DHT22;23517;50.390;8.616;2023-04-24T11:09:39;12.40;43.70
37678;DHT22;23517;50.390;8.616;2023-04-24T11:12:10;12.60;43.90
37678;DHT22;23517;50.390;8.616;2023-04-24T11:17:32;13.20;41.90
37678;DHT22;23517;50.390;8.616;2023-04-24T11:20:04;13.60;41.40
37678;DHT22;23517;50.390;8.616;2023-04-24T11:22:53;13.80;42.20
37678;DHT22;23517;50.390;8.616;2023-04-24T11:25:21;14.00;42.80
37678;DHT22;23517;50.390;8.616;2023-04-24T11:28:03;14.30;41.20
37678;DHT22;23517;50.390;8.616;2023-04-24T11:30:31;14.30;40.50
37678;DHT22;23517;50.390;8.616;2023-04-24T11:33:03;14.40;40.40
37678;DHT22;23517;50.390;8.616;2023-04-24T11:35:35;14.20;38.30
37678;DHT22;23517;50.390;8.616;2023-04-24T11:38:06;14.20;39.10
37678;DHT22;23517;50.390;8.616;2023-04-24T11:40:49;14.30;39.00
37678;DHT22;23517;50.390;8.616;2023-04-24T11:43:17;14.20;40.50
37678;DHT22;23517;50.390;8.616;2023-04-24T11:45:48;13.90;40.90
37678;DHT22;23517;50.390;8.616;2023-04-24T11:48:19;13.90;42.30
37678;DHT22;23517;50.390;8.616;2023-04-24T11:50:48;13.70;41.60
37678;DHT22;23517;50.390;8.616;2023-04-24T11:53:15;13.80;41.20
37678;DHT22;23517;50.390;8.616;2023-04-24T11:55:42;13.90;41.60
37678;DHT22;23517;50.390;8.616;2023-04-24T11:58:09;13.90;39.60
37678;DHT22;23517;50.390;8.616;2023-04-24T12:00:35;13.80;39.10
37678;DHT22;23517;50.390;8.616;2023-04-24T12:03:08;13.70;39.00
37678;DHT22;23517;50.390;8.616;2023-04-24T12:05:36;13.70;39.40
37678;DHT22;23517;50.390;8.616;2023-04-24T12:08:03;13.40;39.50
37678;DHT22;23517;50.390;8.616;2023-04-24T12:10:31;13.40;41.80
37678;DHT22;23517;50.390;8.616;2023-04-24T12:13:00;13.40;42.80
37678;DHT22;23517;50.390;8.616;2023-04-24T12:15:27;13.60;41.00
37678;DHT22;23517;50.390;8.616;2023-04-24T12:17:55;13.70;39.90
37678;DHT22;23517;50.390;8.616;2023-04-24T12:20:31;13.90;39.10
37678;DHT22;23517;50.390;8.616;2023-04-24T12:23:00;13.80;37.70
37678;DHT22;23517;50.390;8.616;2023-04-24T12:25:32;13.70;37.80
37678;DHT22;23517;50.390;8.616;2023-04-24T12:30:35;14.00;39.20
37678;DHT22;23517;50.390;8.616;2023-04-24T12:33:11;13.80;40.50
37678;DHT22;23517;50.390;8.616;2023-04-24T12:35:48;13.30;40.70
37678;DHT22;23517;50.390;8.616;2023-04-24T12:38:25;13.00;42.70
37678;DHT22;23517;50.390;8.616;2023-04-24T12:41:04;12.80;44.00
37678;DHT22;23517;50.390;8.616;2023-04-24T12:43:35;12.70;44.60
37678;DHT22;23517;50.390;8.616;2023-04-24T12:46:02;12.70;46.80
37678;DHT22;23517;50.390;8.616;2023-04-24T12:48:30;12.70;44.70
37678;DHT22;23517;50.390;8.616;2023-04-24T12:50:59;13.10;45.00
37678;DHT22;23517;50.390;8.616;2023-04-24T12:53:29;13.40;43.30
37678;DHT22;23517;50.390;8.616;2023-04-24T12:55:57;13.60;42.00
37678;DHT22;23517;50.390;8.616;2023-04-24T12:58:24;13.70;41.60
37678;DHT22;23517;50.390;8.616;2023-04-24T13:00:51;13.70;40.10
37678;DHT22;23517;50.390;8.616;2023-04-24T13:03:18;13.60;40.90
37678;DHT22;23517;50.390;8.616;2023-04-24T13:05:45;13.60;38.50
37678;DHT22;23517;50.390;8.616;2023-04-24T13:08:12;13.70;38.60
37678;DHT22;23517;50.390;8.616;2023-04-24T13:10:39;13.80;39.10
37678;DHT22;23517;50.390;8.616;2023-04-24T13:13:07;13.80;39.00
37678;DHT22;23517;50.390;8.616;2023-04-24T13:15:34;13.60;39.50
37678;DHT22;23517;50.390;8.616;2023-04-24T13:18:01;13.50;41.30
37678;DHT22;23517;50.390;8.616;2023-04-24T13:20:28;13.40;40.20
37678;DHT22;23517;50.390;8.616;2023-04-24T13:22:54;13.40;41.00
37678;DHT22;23517;50.390;8.616;2023-04-24T13:25:21;13.20;40.80
37678;DHT22;23517;50.390;8.616;2023-04-24T13:27:50;13.30;42.90
37678;DHT22;23517;50.390;8.616;2023-04-24T13:30:17;13.30;41.60
37678;DHT22;23517;50.390;8.616;2023-04-24T13:32:44;13.50;40.20
37678;DHT22;23517;50.390;8.616;2023-04-24T13:35:10;13.50;39.70
37678;DHT22;23517;50.390;8.616;2023-04-24T13:37:37;13.70;39.00
37678;DHT22;23517;50.390;8.616;2023-04-24T13:40:04;13.50;38.10
37678;DHT22;23517;50.390;8.616;2023-04-24T13:42:32;13.40;38.70
37678;DHT22;23517;50.390;8.616;2023-04-24T13:44:59;13.50;38.30
37678;DHT22;23517;50.390;8.616;2023-04-24T13:47:29;13.60;38.40
37678;DHT22;23517;50.390;8.616;2023-04-24T13:49:56;13.20;39.90
37678;DHT22;23517;50.390;8.616;2023-04-24T13:52:22;13.10;39.50
37678;DHT22;23517;50.390;8.616;2023-04-24T13:54:49;13.30;38.00
37678;DHT22;23517;50.390;8.616;2023-04-24T13:57:16;13.20;38.00
37678;DHT22;23517;50.390;8.616;2023-04-24T13:59:43;13.10;38.80
37678;DHT22;23517;50.390;8.616;2023-04-24T14:02:10;13.20;38.80
37678;DHT22;23517;50.390;8.616;2023-04-24T14:04:37;13.50;38.40
37678;DHT22;23517;50.390;8.616;2023-04-24T14:07:04;13.50;37.40
37678;DHT22;23517;50.390;8.616;2023-04-24T14:09:30;13.60;36.60
37678;DHT22;23517;50.390;8.616;2023-04-24T14:11:57;13.40;36.30
37678;DHT22;23517;50.390;8.616;2023-04-24T14:14:24;13.50;36.80
37678;DHT22;23517;50.390;8.616;2023-04-24T14:16:51;13.70;35.90
37678;DHT22;23517;50.390;8.616;2023-04-24T14:19:17;13.90;34.60
37678;DHT22;23517;50.390;8.616;2023-04-24T14:21:44;14.00;35.50
37678;DHT22;23517;50.390;8.616;2023-04-24T14:24:11;14.10;34.90
37678;DHT22;23517;50.390;8.616;2023-04-24T14:26:37;14.20;34.30
37678;DHT22;23517;50.390;8.616;2023-04-24T14:29:06;14.30;33.80
37678;DHT22;23517;50.390;8.616;2023-04-24T14:31:41;14.20;33.70
37678;DHT22;23517;50.390;8.616;2023-04-24T14:34:08;14.10;33.50
37678;DHT22;23517;50.390;8.616;2023-04-24T14:36:35;13.90;32.10
37678;DHT22;23517;50.390;8.616;2023-04-24T14:39:02;13.60;31.80
37678;DHT22;23517;50.390;8.616;2023-04-24T14:41:33;13.40;32.60
37678;DHT22;23517;50.390;8.616;2023-04-24T14:44:03;13.30;33.40
37678;DHT22;23517;50.390;8.616;2023-04-24T14:46:30;13.10;32.70
37678;DHT22;23517;50.390;8.616;2023-04-24T14:48:57;13.00;31.90
37678;DHT22;23517;50.390;8.616;2023-04-24T14:51:24;13.00;32.00
37678;DHT22;23517;50.390;8.616;2023-04-24T14:53:51;13.00;32.20
37678;DHT22;23517;50.390;8.616;2023-04-24T14:56:18;13.00;31.90
37678;DHT22;23517;50.390;8.616;2023-04-24T14:58:45;12.90;31.60
37678;DHT22;23517;50.390;8.616;2023-04-24T15:01:11;12.80;32.80
37678;DHT22;23517;50.390;8.616;2023-04-24T15:03:38;12.90;33.10
37678;DHT22;23517;50.390;8.616;2023-04-24T15:06:05;13.20;32.50
37678;DHT22;23517;50.390;8.616;2023-04-24T15:08:32;13.50;31.80
37678;DHT22;23517;50.390;8.616;2023-04-24T15:10:59;13.80;31.30
37678;DHT22;23517;50.390;8.616;2023-04-24T15:13:25;13.70;30.50
37678;DHT22;23517;50.390;8.616;2023-04-24T15:15:52;13.80;29.20
37678;DHT22;23517;50.390;8.616;2023-04-24T15:18:19;13.90;29.60
37678;DHT22;23517;50.390;8.616;2023-04-24T15:20:45;13.90;29.00
37678;DHT22;23517;50.390;8.616;2023-04-24T15:23:12;14.10;29.50
37678;DHT22;23517;50.390;8.616;2023-04-24T15:25:39;14.10;29.20
37678;DHT22;23517;50.390;8.616;2023-04-24T15:28:06;14.20;28.60
37678;DHT22;23517;50.390;8.616;2023-04-24T15:30:32;14.20;28.50
37678;DHT22;23517;50.390;8.616;2023-04-24T15:33:00;14.10;29.00
37678;DHT22;23517;50.390;8.616;2023-04-24T15:35:27;14.10;28.00
37678;DHT22;23517;50.390;8.616;2023-04-24T15:37:54;13.70;28.20
37678;DHT22;23517;50.390;8.616;2023-04-24T15:40:21;13.40;28.70
37678;DHT22;23517;50.390;8.616;2023-04-24T15:42:47;13.20;29.30
37678;DHT22;23517;50.390;8.616;2023-04-24T15:45:14;13.10;29.70
37678;DHT22;23517;50.390;8.616;2023-04-24T15:47:41;13.00;30.70
37678;DHT22;23517;50.390;8.616;2023-04-24T15:50:08;13.00;30.60